sensor_id;sensor_type;location;lat;lon;timestamp;temperature;humidity
18406;DHT22;9329;48.720;9.588;2022-11-11T00:01:14;7.70;99.90
18406;DHT22;9329;48.720;9.588;2022-11-11T00:04:00;7.50;99.90
18406;DHT22;9329;48.720;9.588;2022-11-11T00:06:47;7.60;99.90
18406;DHT22;9329;48.720;9.588;2022-11-11T00:09:32;7.70;99.90
18406;DHT22;9329;48.720;9.588;2022-11-11T00:12:19;7.70;99.90
18406;DHT22;9329;48.720;9.588;2022-11-11T00:15:05;7.80;99.90
18406;DHT22;9329;48.720;9.588;2022-11-11T00:17:51;7.40;99.90
18406;DHT22;9329;48.720;9.588;2022-11-11T00:20:57;7.50;99.90
18406;DHT22;9329;48.720;9.588;2022-11-11T00:24:02;7.50;99.90
18406;DHT22;9329;48.720;9.588;2022-11-11T00:27:06;7.10;99.90
18406;DHT22;9329;48.720;9.588;2022-11-11T00:29:51;7.30;99.90
18406;DHT22;9329;48.720;9.588;2022-11-11T00:32:38;7.40;99.90
18406;DHT22;9329;48.720;9.588;2022-11-11T00:35:23;7.40;99.90
18406;DHT22;9329;48.720;9.588;2022-11-11T00:38:27;7.40;99.90
18406;DHT22;9329;48.720;9.588;2022-11-11T00:41:32;7.30;99.90
18406;DHT22;9329;48.720;9.588;2022-11-11T00:44:18;7.20;99.90
18406;DHT22;9329;48.720;9.588;2022-11-11T00:47:04;7.60;99.90
18406;DHT22;9329;48.720;9.588;2022-11-11T00:50:10;7.40;99.90
18406;DHT22;9329;48.720;9.588;2022-11-11T00:53:15;7.30;99.90
18406;DHT22;9329;48.720;9.588;2022-11-11T00:56:01;7.40;99.90
18406;DHT22;9329;48.720;9.588;2022-11-11T00:58:49;7.30;99.90
18406;DHT22;9329;48.720;9.588;2022-11-11T01:01:36;7.50;99.90
18406;DHT22;9329;48.720;9.588;2022-11-11T01:04:21;7.40;99.90
18406;DHT22;9329;48.720;9.588;2022-11-11T01:07:07;7.00;99.90
18406;DHT22;9329;48.720;9.588;2022-11-11T01:09:53;7.10;99.90
18406;DHT22;9329;48.720;9.588;2022-11-11T01:12:38;7.00;99.90
18406;DHT22;9329;48.720;9.588;2022-11-11T01:15:25;7.20;99.90
18406;DHT22;9329;48.720;9.588;2022-11-11T01:18:12;6.80;99.90
18406;DHT22;9329;48.720;9.588;2022-11-11T01:20:59;5.70;99.90
18406;DHT22;9329;48.720;9.588;2022-11-11T01:23:45;6.10;99.90
18406;DHT22;9329;48.720;9.588;2022-11-11T01:26:32;6.70;99.90
18406;DHT22;9329;48.720;9.588;2022-11-11T01:29:18;6.80;99.90
18406;DHT22;9329;48.720;9.588;2022-11-11T01:32:04;6.90;99.90
18406;DHT22;9329;48.720;9.588;2022-11-11T01:34:50;6.90;99.90
18406;DHT22;9329;48.720;9.588;2022-11-11T01:37:36;6.90;99.90
18406;DHT22;9329;48.720;9.588;2022-11-11T01:40:21;6.90;99.90
18406;DHT22;9329;48.720;9.588;2022-11-11T01:43:19;7.00;99.90
18406;DHT22;9329;48.720;9.588;2022-11-11T01:46:19;6.90;99.90
18406;DHT22;9329;48.720;9.588;2022-11-11T01:49:20;6.70;99.90
18406;DHT22;9329;48.720;9.588;2022-11-11T01:52:08;7.00;99.90
18406;DHT22;9329;48.720;9.588;2022-11-11T01:54:57;6.70;99.90
18406;DHT22;9329;48.720;9.588;2022-11-11T01:57:45;6.90;99.90
18406;DHT22;9329;48.720;9.588;2022-11-11T02:00:31;6.80;99.90
18406;DHT22;9329;48.720;9.588;2022-11-11T02:03:18;6.60;99.90
18406;DHT22;9329;48.720;9.588;2022-11-11T02:06:07;6.60;99.90
18406;DHT22;9329;48.720;9.588;2022-11-11T02:08:52;6.80;99.90
18406;DHT22;9329;48.720;9.588;2022-11-11T02:11:39;7.10;99.90
18406;DHT22;9329;48.720;9.588;2022-11-11T02:14:47;6.50;99.90
18406;DHT22;9329;48.720;9.588;2022-11-11T02:17:34;6.80;99.90
18406;DHT22;9329;48.720;9.588;2022-11-11T02:20:21;7.10;99.90
18406;DHT22;9329;48.720;9.588;2022-11-11T02:23:13;6.70;99.90
18406;DHT22;9329;48.720;9.588;2022-11-11T02:26:02;6.60;99.90
18406;DHT22;9329;48.720;9.588;2022-11-11T02:28:48;6.90;99.90
18406;DHT22;9329;48.720;9.588;2022-11-11T02:31:35;7.00;99.90
18406;DHT22;9329;48.720;9.588;2022-11-11T02:34:27;6.80;99.90
18406;DHT22;9329;48.720;9.588;2022-11-11T02:37:13;6.90;99.90
18406;DHT22;9329;48.720;9.588;2022-11-11T02:40:01;6.80;99.90
18406;DHT22;9329;48.720;9.588;2022-11-11T02:42:52;6.80;99.90
18406;DHT22;9329;48.720;9.588;2022-11-11T02:45:37;6.80;99.90
18406;DHT22;9329;48.720;9.588;2022-11-11T02:48:24;6.90;99.90
18406;DHT22;9329;48.720;9.588;2022-11-11T02:51:09;6.80;99.90
18406;DHT22;9329;48.720;9.588;2022-11-11T02:53:55;6.80;99.90
18406;DHT22;9329;48.720;9.588;2022-11-11T02:56:46;6.70;99.90
18406;DHT22;9329;48.720;9.588;2022-11-11T02:59:50;6.50;99.90
18406;DHT22;9329;48.720;9.588;2022-11-11T03:02:36;6.40;99.90
18406;DHT22;9329;48.720;9.588;2022-11-11T03:05:22;6.70;99.90
18406;DHT22;9329;48.720;9.588;2022-11-11T03:08:08;6.70;99.90
18406;DHT22;9329;48.720;9.588;2022-11-11T03:10:53;6.60;99.90
18406;DHT22;9329;48.720;9.588;2022-11-11T03:13:39;5.60;99.90
18406;DHT22;9329;48.720;9.588;2022-11-11T03:16:26;5.10;99.90
18406;DHT22;9329;48.720;9.588;2022-11-11T03:19:30;6.00;99.90
18406;DHT22;9329;48.720;9.588;2022-11-11T03:22:15;6.20;99.90
18406;DHT22;9329;48.720;9.588;2022-11-11T03:25:01;6.10;99.90
18406;DHT22;9329;48.720;9.588;2022-11-11T03:28:04;6.20;99.90
18406;DHT22;9329;48.720;9.588;2022-11-11T03:30:50;6.30;99.90
18406;DHT22;9329;48.720;9.588;2022-11-11T03:33:37;6.30;99.90
18406;DHT22;9329;48.720;9.588;2022-11-11T03:36:22;6.20;99.90
18406;DHT22;9329;48.720;9.588;2022-11-11T03:39:28;6.10;99.90
18406;DHT22;9329;48.720;9.588;2022-11-11T03:42:12;6.30;99.90
18406;DHT22;9329;48.720;9.588;2022-11-11T03:44:58;6.60;99.90
18406;DHT22;9329;48.720;9.588;2022-11-11T03:47:44;6.30;99.90
18406;DHT22;9329;48.720;9.588;2022-11-11T03:50:31;6.40;99.90
18406;DHT22;9329;48.720;9.588;2022-11-11T03:53:17;6.30;99.90
18406;DHT22;9329;48.720;9.588;2022-11-11T03:56:03;6.20;99.90
18406;DHT22;9329;48.720;9.588;2022-11-11T03:58:49;6.40;99.90
18406;DHT22;9329;48.720;9.588;2022-11-11T04:01:34;6.50;99.90
18406;DHT22;9329;48.720;9.588;2022-11-11T04:04:37;6.10;99.90
18406;DHT22;9329;48.720;9.588;2022-11-11T04:07:42;6.00;99.90
18406;DHT22;9329;48.720;9.588;2022-11-11T04:10:45;5.90;99.90
18406;DHT22;9329;48.720;9.588;2022-11-11T04:13:32;6.30;99.90
18406;DHT22;9329;48.720;9.588;2022-11-11T04:16:35;6.60;99.90
18406;DHT22;9329;48.720;9.588;2022-11-11T04:19:21;5.80;99.90
18406;DHT22;9329;48.720;9.588;2022-11-11T04:22:24;6.20;99.90
18406;DHT22;9329;48.720;9.588;2022-11-11T04:25:11;6.30;99.90
18406;DHT22;9329;48.720;9.588;2022-11-11T04:28:14;6.20;99.90
18406;DHT22;9329;48.720;9.588;2022-11-11T04:31:17;6.20;99.90
18406;DHT22;9329;48.720;9.588;2022-11-11T04:34:03;6.00;99.90
18406;DHT22;9329;48.720;9.588;2022-11-11T04:36:47;6.40;99.90
18406;DHT22;9329;48.720;9.588;2022-11-11T04:39:33;6.10;99.90
18406;DHT22;9329;48.720;9.588;2022-11-11T04:42:38;6.40;99.90
18406;DHT22;9329;48.720;9.588;2022-11-11T04:45:23;6.10;99.90
18406;DHT22;9329;48.720;9.588;2022-11-11T04:48:19;6.10;99.90
18406;DHT22;9329;48.720;9.588;2022-11-11T04:51:04;6.10;99.90
18406;DHT22;9329;48.720;9.588;2022-11-11T04:53:50;6.00;99.90
18406;DHT22;9329;48.720;9.588;2022-11-11T04:56:36;6.00;99.90
18406;DHT22;9329;48.720;9.588;2022-11-11T04:59:34;5.90;99.90
18406;DHT22;9329;48.720;9.588;2022-11-11T05:02:20;5.90;99.90
18406;DHT22;9329;48.720;9.588;2022-11-11T05:05:24;5.80;99.90
18406;DHT22;9329;48.720;9.588;2022-11-11T05:08:09;5.90;99.90
18406;DHT22;9329;48.720;9.588;2022-11-11T05:11:13;6.00;99.90
18406;DHT22;9329;48.720;9.588;2022-11-11T05:14:00;6.10;99.90
18406;DHT22;9329;48.720;9.588;2022-11-11T05:17:05;6.20;99.90
18406;DHT22;9329;48.720;9.588;2022-11-11T05:20:09;6.30;99.90
18406;DHT22;9329;48.720;9.588;2022-11-11T05:23:13;6.30;99.90
18406;DHT22;9329;48.720;9.588;2022-11-11T05:25:58;6.00;99.90
18406;DHT22;9329;48.720;9.588;2022-11-11T05:28:43;5.90;99.90
18406;DHT22;9329;48.720;9.588;2022-11-11T05:31:30;6.10;99.90
18406;DHT22;9329;48.720;9.588;2022-11-11T05:34:17;6.00;99.90
18406;DHT22;9329;48.720;9.588;2022-11-11T05:37:02;6.10;99.90
18406;DHT22;9329;48.720;9.588;2022-11-11T05:39:47;6.10;99.90
18406;DHT22;9329;48.720;9.588;2022-11-11T05:42:33;6.10;99.90
18406;DHT22;9329;48.720;9.588;2022-11-11T05:45:19;6.60;99.90
18406;DHT22;9329;48.720;9.588;2022-11-11T05:48:05;6.10;99.90
18406;DHT22;9329;48.720;9.588;2022-11-11T05:50:52;5.90;99.90
18406;DHT22;9329;48.720;9.588;2022-11-11T05:53:37;5.70;99.90
18406;DHT22;9329;48.720;9.588;2022-11-11T05:56:23;5.90;99.90
18406;DHT22;9329;48.720;9.588;2022-11-11T05:59:09;6.10;99.90
18406;DHT22;9329;48.720;9.588;2022-11-11T06:01:54;6.10;99.90
18406;DHT22;9329;48.720;9.588;2022-11-11T06:04:40;5.90;99.90
18406;DHT22;9329;48.720;9.588;2022-11-11T06:07:27;5.80;99.90
18406;DHT22;9329;48.720;9.588;2022-11-11T06:10:13;6.30;99.90
18406;DHT22;9329;48.720;9.588;2022-11-11T06:13:17;6.10;99.90
18406;DHT22;9329;48.720;9.588;2022-11-11T06:16:03;6.10;99.90
18406;DHT22;9329;48.720;9.588;2022-11-11T06:18:49;6.20;99.90
18406;DHT22;9329;48.720;9.588;2022-11-11T06:21:34;6.30;99.90
18406;DHT22;9329;48.720;9.588;2022-11-11T06:24:35;6.10;99.90
18406;DHT22;9329;48.720;9.588;2022-11-11T06:27:21;5.80;99.90
18406;DHT22;9329;48.720;9.588;2022-11-11T06:30:07;6.00;99.90
18406;DHT22;9329;48.720;9.588;2022-11-11T06:32:54;5.90;99.90
18406;DHT22;9329;48.720;9.588;2022-11-11T06:35:42;5.90;99.90
18406;DHT22;9329;48.720;9.588;2022-11-11T06:38:28;6.50;99.90
18406;DHT22;9329;48.720;9.588;2022-11-11T06:41:15;6.40;99.90
18406;DHT22;9329;48.720;9.588;2022-11-11T06:44:01;6.70;99.90
18406;DHT22;9329;48.720;9.588;2022-11-11T06:46:46;6.40;99.90
18406;DHT22;9329;48.720;9.588;2022-11-11T06:49:32;6.40;99.90
18406;DHT22;9329;48.720;9.588;2022-11-11T06:52:17;6.30;99.90
18406;DHT22;9329;48.720;9.588;2022-11-11T06:55:04;6.30;99.90
18406;DHT22;9329;48.720;9.588;2022-11-11T06:57:51;6.10;99.90
18406;DHT22;9329;48.720;9.588;2022-11-11T07:00:36;6.70;99.90
18406;DHT22;9329;48.720;9.588;2022-11-11T07:03:22;7.00;99.90
18406;DHT22;9329;48.720;9.588;2022-11-11T07:06:07;6.90;99.90
18406;DHT22;9329;48.720;9.588;2022-11-11T07:08:53;6.80;99.90
18406;DHT22;9329;48.720;9.588;2022-11-11T07:11:38;7.00;99.90
18406;DHT22;9329;48.720;9.588;2022-11-11T07:14:25;7.40;99.90
18406;DHT22;9329;48.720;9.588;2022-11-11T07:17:11;7.00;99.90
18406;DHT22;9329;48.720;9.588;2022-11-11T07:19:57;7.30;99.90
18406;DHT22;9329;48.720;9.588;2022-11-11T07:22:42;7.40;99.90
18406;DHT22;9329;48.720;9.588;2022-11-11T07:25:28;7.50;99.90
18406;DHT22;9329;48.720;9.588;2022-11-11T07:28:14;7.70;99.90
18406;DHT22;9329;48.720;9.588;2022-11-11T07:31:01;7.90;99.90
18406;DHT22;9329;48.720;9.588;2022-11-11T07:33:46;8.00;99.90
18406;DHT22;9329;48.720;9.588;2022-11-11T07:36:32;7.90;99.90
18406;DHT22;9329;48.720;9.588;2022-11-11T07:39:18;7.80;99.90
18406;DHT22;9329;48.720;9.588;2022-11-11T07:42:04;7.60;99.90
18406;DHT22;9329;48.720;9.588;2022-11-11T07:44:49;7.60;99.90
18406;DHT22;9329;48.720;9.588;2022-11-11T07:47:37;7.40;99.90
18406;DHT22;9329;48.720;9.588;2022-11-11T07:50:22;7.50;99.90
18406;DHT22;9329;48.720;9.588;2022-11-11T07:53:07;7.50;99.90
18406;DHT22;9329;48.720;9.588;2022-11-11T07:55:53;7.20;99.90
18406;DHT22;9329;48.720;9.588;2022-11-11T07:58:39;7.40;99.90
18406;DHT22;9329;48.720;9.588;2022-11-11T08:01:24;7.80;99.90
18406;DHT22;9329;48.720;9.588;2022-11-11T08:04:11;6.60;99.90
18406;DHT22;9329;48.720;9.588;2022-11-11T08:06:58;6.50;99.90
18406;DHT22;9329;48.720;9.588;2022-11-11T08:09:44;6.60;99.90
18406;DHT22;9329;48.720;9.588;2022-11-11T08:12:30;6.90;99.90
18406;DHT22;9329;48.720;9.588;2022-11-11T08:15:33;7.30;99.90
18406;DHT22;9329;48.720;9.588;2022-11-11T08:18:19;6.60;99.90
18406;DHT22;9329;48.720;9.588;2022-11-11T08:21:06;6.50;99.90
18406;DHT22;9329;48.720;9.588;2022-11-11T08:23:52;6.90;99.90
18406;DHT22;9329;48.720;9.588;2022-11-11T08:26:38;8.00;99.90
18406;DHT22;9329;48.720;9.588;2022-11-11T08:29:23;8.30;99.90
18406;DHT22;9329;48.720;9.588;2022-11-11T08:32:09;9.00;99.90
18406;DHT22;9329;48.720;9.588;2022-11-11T08:34:56;9.00;99.90
18406;DHT22;9329;48.720;9.588;2022-11-11T08:37:42;9.40;99.90
18406;DHT22;9329;48.720;9.588;2022-11-11T08:40:28;9.50;99.90
18406;DHT22;9329;48.720;9.588;2022-11-11T08:43:14;9.70;99.90
18406;DHT22;9329;48.720;9.588;2022-11-11T08:46:00;9.80;99.90
18406;DHT22;9329;48.720;9.588;2022-11-11T08:48:47;9.50;99.90
18406;DHT22;9329;48.720;9.588;2022-11-11T08:51:33;9.40;99.90
18406;DHT22;9329;48.720;9.588;2022-11-11T08:54:20;8.90;99.90
18406;DHT22;9329;48.720;9.588;2022-11-11T08:57:06;8.70;99.90
18406;DHT22;9329;48.720;9.588;2022-11-11T08:59:52;8.10;99.90
18406;DHT22;9329;48.720;9.588;2022-11-11T09:02:37;8.10;99.90
18406;DHT22;9329;48.720;9.588;2022-11-11T09:05:23;8.40;99.90
18406;DHT22;9329;48.720;9.588;2022-11-11T09:08:08;8.60;99.90
18406;DHT22;9329;48.720;9.588;2022-11-11T09:10:56;8.70;99.90
18406;DHT22;9329;48.720;9.588;2022-11-11T09:13:43;8.40;99.90
18406;DHT22;9329;48.720;9.588;2022-11-11T09:16:29;8.50;99.90
18406;DHT22;9329;48.720;9.588;2022-11-11T09:19:14;8.70;99.90
18406;DHT22;9329;48.720;9.588;2022-11-11T09:22:00;8.90;99.90
18406;DHT22;9329;48.720;9.588;2022-11-11T09:24:45;9.60;99.90
18406;DHT22;9329;48.720;9.588;2022-11-11T09:27:32;9.70;99.90
18406;DHT22;9329;48.720;9.588;2022-11-11T09:30:18;9.70;99.90
18406;DHT22;9329;48.720;9.588;2022-11-11T09:33:04;9.70;99.90
18406;DHT22;9329;48.720;9.588;2022-11-11T09:35:50;9.80;99.90
18406;DHT22;9329;48.720;9.588;2022-11-11T09:38:35;10.10;99.90
18406;DHT22;9329;48.720;9.588;2022-11-11T09:41:23;10.50;99.90
18406;DHT22;9329;48.720;9.588;2022-11-11T09:44:27;10.30;99.90
18406;DHT22;9329;48.720;9.588;2022-11-11T09:47:23;10.40;99.90
18406;DHT22;9329;48.720;9.588;2022-11-11T09:50:13;10.40;99.90
18406;DHT22;9329;48.720;9.588;2022-11-11T09:53:03;10.70;99.90
18406;DHT22;9329;48.720;9.588;2022-11-11T09:55:57;11.10;99.90
18406;DHT22;9329;48.720;9.588;2022-11-11T09:58:48;10.90;99.90
18406;DHT22;9329;48.720;9.588;2022-11-11T10:01:40;11.30;99.90
18406;DHT22;9329;48.720;9.588;2022-11-11T10:04:30;11.00;99.90
18406;DHT22;9329;48.720;9.588;2022-11-11T10:07:25;11.60;99.90
18406;DHT22;9329;48.720;9.588;2022-11-11T10:10:21;11.70;99.90
18406;DHT22;9329;48.720;9.588;2022-11-11T10:13:12;11.70;99.90
18406;DHT22;9329;48.720;9.588;2022-11-11T10:16:05;12.00;99.90
18406;DHT22;9329;48.720;9.588;2022-11-11T10:19:09;12.30;99.90
18406;DHT22;9329;48.720;9.588;2022-11-11T10:22:00;12.00;99.90
18406;DHT22;9329;48.720;9.588;2022-11-11T10:24:52;12.20;99.90
18406;DHT22;9329;48.720;9.588;2022-11-11T10:27:46;12.40;99.90
18406;DHT22;9329;48.720;9.588;2022-11-11T10:30:32;12.70;99.90
18406;DHT22;9329;48.720;9.588;2022-11-11T10:33:22;12.70;99.90
18406;DHT22;9329;48.720;9.588;2022-11-11T10:36:15;12.80;99.90
18406;DHT22;9329;48.720;9.588;2022-11-11T10:39:03;13.10;99.90
18406;DHT22;9329;48.720;9.588;2022-11-11T10:41:50;13.40;99.90
18406;DHT22;9329;48.720;9.588;2022-11-11T10:44:38;13.90;99.90
18406;DHT22;9329;48.720;9.588;2022-11-11T10:47:32;14.00;99.90
18406;DHT22;9329;48.720;9.588;2022-11-11T10:50:25;13.90;99.90
18406;DHT22;9329;48.720;9.588;2022-11-11T10:53:22;14.00;99.90
18406;DHT22;9329;48.720;9.588;2022-11-11T10:56:16;13.20;99.90
18406;DHT22;9329;48.720;9.588;2022-11-11T10:59:11;13.00;99.90
18406;DHT22;9329;48.720;9.588;2022-11-11T11:02:01;13.60;99.90
18406;DHT22;9329;48.720;9.588;2022-11-11T11:04:51;13.90;99.90
18406;DHT22;9329;48.720;9.588;2022-11-11T11:07:41;14.20;99.90
18406;DHT22;9329;48.720;9.588;2022-11-11T11:10:34;14.60;99.90
18406;DHT22;9329;48.720;9.588;2022-11-11T11:13:27;15.00;99.90
18406;DHT22;9329;48.720;9.588;2022-11-11T11:16:18;15.00;99.90
18406;DHT22;9329;48.720;9.588;2022-11-11T11:19:13;14.40;99.90
18406;DHT22;9329;48.720;9.588;2022-11-11T11:22:01;13.80;99.90
18406;DHT22;9329;48.720;9.588;2022-11-11T11:24:47;13.70;99.90
18406;DHT22;9329;48.720;9.588;2022-11-11T11:27:33;14.10;99.90
18406;DHT22;9329;48.720;9.588;2022-11-11T11:30:21;14.80;99.90
18406;DHT22;9329;48.720;9.588;2022-11-11T11:33:08;14.50;99.90
18406;DHT22;9329;48.720;9.588;2022-11-11T11:35:53;14.20;99.90
18406;DHT22;9329;48.720;9.588;2022-11-11T11:38:41;14.00;99.90
18406;DHT22;9329;48.720;9.588;2022-11-11T11:41:38;14.70;99.90
18406;DHT22;9329;48.720;9.588;2022-11-11T11:44:26;15.10;99.90
18406;DHT22;9329;48.720;9.588;2022-11-11T11:47:22;15.00;99.90
18406;DHT22;9329;48.720;9.588;2022-11-11T11:50:30;15.60;99.90
18406;DHT22;9329;48.720;9.588;2022-11-11T11:53:29;15.90;99.90
18406;DHT22;9329;48.720;9.588;2022-11-11T11:56:24;16.30;99.90
18406;DHT22;9329;48.720;9.588;2022-11-11T11:59:19;17.30;99.90
18406;DHT22;9329;48.720;9.588;2022-11-11T12:02:20;17.80;99.90
18406;DHT22;9329;48.720;9.588;2022-11-11T12:05:19;18.40;99.90
18406;DHT22;9329;48.720;9.588;2022-11-11T12:08:21;18.90;99.90
18406;DHT22;9329;48.720;9.588;2022-11-11T12:11:17;19.30;99.90
18406;DHT22;9329;48.720;9.588;2022-11-11T12:14:36;19.80;99.90
18406;DHT22;9329;48.720;9.588;2022-11-11T12:17:41;18.80;99.90
18406;DHT22;9329;48.720;9.588;2022-11-11T12:20:34;19.10;99.90
18406;DHT22;9329;48.720;9.588;2022-11-11T12:23:55;19.10;99.90
18406;DHT22;9329;48.720;9.588;2022-11-11T12:26:48;19.70;99.90
18406;DHT22;9329;48.720;9.588;2022-11-11T12:29:46;19.10;99.90
18406;DHT22;9329;48.720;9.588;2022-11-11T12:36:10;20.50;99.90
18406;DHT22;9329;48.720;9.588;2022-11-11T12:39:04;20.80;99.90
18406;DHT22;9329;48.720;9.588;2022-11-11T12:42:02;20.60;99.90
18406;DHT22;9329;48.720;9.588;2022-11-11T12:44:56;20.70;99.90
18406;DHT22;9329;48.720;9.588;2022-11-11T12:47:57;21.00;99.90
18406;DHT22;9329;48.720;9.588;2022-11-11T12:50:52;20.90;99.90
18406;DHT22;9329;48.720;9.588;2022-11-11T12:53:45;20.90;99.90
18406;DHT22;9329;48.720;9.588;2022-11-11T12:56:40;19.80;99.90
18406;DHT22;9329;48.720;9.588;2022-11-11T12:59:40;19.40;99.90
18406;DHT22;9329;48.720;9.588;2022-11-11T13:02:49;19.80;99.90
18406;DHT22;9329;48.720;9.588;2022-11-11T13:05:43;19.70;99.90
18406;DHT22;9329;48.720;9.588;2022-11-11T13:09:08;20.10;99.90
18406;DHT22;9329;48.720;9.588;2022-11-11T13:12:02;20.80;99.90
18406;DHT22;9329;48.720;9.588;2022-11-11T13:14:58;20.50;99.90
18406;DHT22;9329;48.720;9.588;2022-11-11T13:17:46;19.80;99.90
18406;DHT22;9329;48.720;9.588;2022-11-11T13:20:48;20.10;99.90
18406;DHT22;9329;48.720;9.588;2022-11-11T13:23:35;19.90;99.90
18406;DHT22;9329;48.720;9.588;2022-11-11T13:26:29;20.10;99.90
18406;DHT22;9329;48.720;9.588;2022-11-11T13:29:39;20.00;99.90
18406;DHT22;9329;48.720;9.588;2022-11-11T13:32:30;19.90;99.90
18406;DHT22;9329;48.720;9.588;2022-11-11T13:35:21;19.40;99.90
18406;DHT22;9329;48.720;9.588;2022-11-11T13:38:21;18.80;99.90
18406;DHT22;9329;48.720;9.588;2022-11-11T13:41:08;19.10;99.90
18406;DHT22;9329;48.720;9.588;2022-11-11T13:43:57;19.20;99.90
18406;DHT22;9329;48.720;9.588;2022-11-11T13:46:45;19.00;99.90
18406;DHT22;9329;48.720;9.588;2022-11-11T13:49:34;18.30;99.90
18406;DHT22;9329;48.720;9.588;2022-11-11T13:52:22;18.50;99.90
18406;DHT22;9329;48.720;9.588;2022-11-11T13:55:24;18.80;99.90
18406;DHT22;9329;48.720;9.588;2022-11-11T13:58:21;18.70;99.90
18406;DHT22;9329;48.720;9.588;2022-11-11T14:01:09;18.90;99.90
18406;DHT22;9329;48.720;9.588;2022-11-11T14:04:01;18.40;99.90
18406;DHT22;9329;48.720;9.588;2022-11-11T14:06:49;18.60;99.90
18406;DHT22;9329;48.720;9.588;2022-11-11T14:09:58;18.70;99.90
18406;DHT22;9329;48.720;9.588;2022-11-11T14:12:47;19.50;99.90
18406;DHT22;9329;48.720;9.588;2022-11-11T14:15:40;19.50;99.90
18406;DHT22;9329;48.720;9.588;2022-11-11T14:18:36;19.90;99.90
18406;DHT22;9329;48.720;9.588;2022-11-11T14:21:43;20.40;99.90
18406;DHT22;9329;48.720;9.588;2022-11-11T14:24:38;20.50;99.90
18406;DHT22;9329;48.720;9.588;2022-11-11T14:27:26;20.30;99.90
18406;DHT22;9329;48.720;9.588;2022-11-11T14:30:42;20.00;99.90
18406;DHT22;9329;48.720;9.588;2022-11-11T14:33:37;20.10;99.90
18406;DHT22;9329;48.720;9.588;2022-11-11T14:36:31;19.70;99.90
18406;DHT22;9329;48.720;9.588;2022-11-11T14:39:40;19.50;99.90
18406;DHT22;9329;48.720;9.588;2022-11-11T14:42:45;19.30;99.90
18406;DHT22;9329;48.720;9.588;2022-11-11T14:46:01;19.10;99.90
18406;DHT22;9329;48.720;9.588;2022-11-11T14:49:00;18.80;99.90
18406;DHT22;9329;48.720;9.588;2022-11-11T14:51:48;19.00;99.90
18406;DHT22;9329;48.720;9.588;2022-11-11T14:54:57;18.50;99.90
18406;DHT22;9329;48.720;9.588;2022-11-11T14:57:47;18.00;99.90
18406;DHT22;9329;48.720;9.588;2022-11-11T15:00:44;17.60;99.90
18406;DHT22;9329;48.720;9.588;2022-11-11T15:03:36;17.30;99.90
18406;DHT22;9329;48.720;9.588;2022-11-11T15:06:26;16.80;99.90
18406;DHT22;9329;48.720;9.588;2022-11-11T15:09:29;16.80;99.90
18406;DHT22;9329;48.720;9.588;2022-11-11T15:12:29;17.00;99.90
18406;DHT22;9329;48.720;9.588;2022-11-11T15:15:22;16.70;99.90
18406;DHT22;9329;48.720;9.588;2022-11-11T15:18:19;16.40;99.90
18406;DHT22;9329;48.720;9.588;2022-11-11T15:21:14;16.20;99.90
18406;DHT22;9329;48.720;9.588;2022-11-11T15:24:14;16.10;99.90
18406;DHT22;9329;48.720;9.588;2022-11-11T15:27:07;15.80;99.90
18406;DHT22;9329;48.720;9.588;2022-11-11T15:30:08;15.70;99.90
18406;DHT22;9329;48.720;9.588;2022-11-11T15:33:03;15.60;99.90
18406;DHT22;9329;48.720;9.588;2022-11-11T15:35:54;15.10;99.90
18406;DHT22;9329;48.720;9.588;2022-11-11T15:38:43;15.30;99.90
18406;DHT22;9329;48.720;9.588;2022-11-11T15:41:45;15.20;99.90
18406;DHT22;9329;48.720;9.588;2022-11-11T15:44:33;15.00;99.90
18406;DHT22;9329;48.720;9.588;2022-11-11T15:47:29;14.90;99.90
18406;DHT22;9329;48.720;9.588;2022-11-11T15:50:30;14.80;99.90
18406;DHT22;9329;48.720;9.588;2022-11-11T15:53:23;14.30;99.90
18406;DHT22;9329;48.720;9.588;2022-11-11T15:56:10;14.20;99.90
18406;DHT22;9329;48.720;9.588;2022-11-11T15:58:55;13.80;99.90
18406;DHT22;9329;48.720;9.588;2022-11-11T16:01:41;13.70;99.90
18406;DHT22;9329;48.720;9.588;2022-11-11T16:04:27;13.60;99.90
18406;DHT22;9329;48.720;9.588;2022-11-11T16:07:18;13.50;99.90
18406;DHT22;9329;48.720;9.588;2022-11-11T16:10:07;13.30;99.90
18406;DHT22;9329;48.720;9.588;2022-11-11T16:12:56;13.20;99.90
18406;DHT22;9329;48.720;9.588;2022-11-11T16:15:46;13.10;99.90
18406;DHT22;9329;48.720;9.588;2022-11-11T16:18:38;13.40;99.90
18406;DHT22;9329;48.720;9.588;2022-11-11T16:21:27;13.20;99.90
18406;DHT22;9329;48.720;9.588;2022-11-11T16:24:22;13.00;99.90
18406;DHT22;9329;48.720;9.588;2022-11-11T16:27:14;13.00;99.90
18406;DHT22;9329;48.720;9.588;2022-11-11T16:30:16;13.20;99.90
18406;DHT22;9329;48.720;9.588;2022-11-11T16:33:02;12.80;99.90
18406;DHT22;9329;48.720;9.588;2022-11-11T16:35:48;12.60;99.90
18406;DHT22;9329;48.720;9.588;2022-11-11T16:38:34;11.90;99.90
18406;DHT22;9329;48.720;9.588;2022-11-11T16:41:23;12.10;99.90
18406;DHT22;9329;48.720;9.588;2022-11-11T16:44:37;11.80;99.90
18406;DHT22;9329;48.720;9.588;2022-11-11T16:50:52;11.90;99.90
18406;DHT22;9329;48.720;9.588;2022-11-11T16:53:42;12.00;99.90
18406;DHT22;9329;48.720;9.588;2022-11-11T16:56:30;12.10;99.90
18406;DHT22;9329;48.720;9.588;2022-11-11T16:59:18;12.00;99.90
18406;DHT22;9329;48.720;9.588;2022-11-11T17:02:14;11.70;99.90
18406;DHT22;9329;48.720;9.588;2022-11-11T17:05:01;11.60;99.90
18406;DHT22;9329;48.720;9.588;2022-11-11T17:07:47;11.50;99.90
18406;DHT22;9329;48.720;9.588;2022-11-11T17:10:37;11.30;99.90
18406;DHT22;9329;48.720;9.588;2022-11-11T17:13:23;11.20;99.90
18406;DHT22;9329;48.720;9.588;2022-11-11T17:16:11;11.10;99.90
18406;DHT22;9329;48.720;9.588;2022-11-11T17:18:58;10.90;99.90
18406;DHT22;9329;48.720;9.588;2022-11-11T17:21:46;10.90;99.90
18406;DHT22;9329;48.720;9.588;2022-11-11T17:24:32;10.90;99.90
18406;DHT22;9329;48.720;9.588;2022-11-11T17:27:18;10.70;99.90
18406;DHT22;9329;48.720;9.588;2022-11-11T17:30:05;10.70;99.90
18406;DHT22;9329;48.720;9.588;2022-11-11T17:32:51;10.80;99.90
18406;DHT22;9329;48.720;9.588;2022-11-11T17:35:38;11.10;99.90
18406;DHT22;9329;48.720;9.588;2022-11-11T17:38:25;11.00;99.90
18406;DHT22;9329;48.720;9.588;2022-11-11T17:41:12;10.90;99.90
18406;DHT22;9329;48.720;9.588;2022-11-11T17:43:58;11.10;99.90
18406;DHT22;9329;48.720;9.588;2022-11-11T17:46:44;10.90;99.90
18406;DHT22;9329;48.720;9.588;2022-11-11T17:49:30;10.70;99.90
18406;DHT22;9329;48.720;9.588;2022-11-11T17:52:16;10.40;99.90
18406;DHT22;9329;48.720;9.588;2022-11-11T17:55:03;10.20;99.90
18406;DHT22;9329;48.720;9.588;2022-11-11T17:57:49;10.20;99.90
18406;DHT22;9329;48.720;9.588;2022-11-11T18:00:36;10.00;99.90
18406;DHT22;9329;48.720;9.588;2022-11-11T18:03:21;9.90;99.90
18406;DHT22;9329;48.720;9.588;2022-11-11T18:06:07;9.80;99.90
18406;DHT22;9329;48.720;9.588;2022-11-11T18:08:53;9.90;99.90
18406;DHT22;9329;48.720;9.588;2022-11-11T18:11:40;9.90;99.90
18406;DHT22;9329;48.720;9.588;2022-11-11T18:14:26;9.80;99.90
18406;DHT22;9329;48.720;9.588;2022-11-11T18:17:12;9.60;99.90
18406;DHT22;9329;48.720;9.588;2022-11-11T18:19:57;9.50;99.90
18406;DHT22;9329;48.720;9.588;2022-11-11T18:22:43;9.60;99.90
18406;DHT22;9329;48.720;9.588;2022-11-11T18:25:28;9.70;99.90
18406;DHT22;9329;48.720;9.588;2022-11-11T18:28:15;9.70;99.90
18406;DHT22;9329;48.720;9.588;2022-11-11T18:31:02;9.60;99.90
18406;DHT22;9329;48.720;9.588;2022-11-11T18:33:48;9.70;99.90